sensor_id;sensor_type;location;lat;lon;timestamp;P1;durP1;ratioP1;P2;durP2;ratioP2
34828;SDS011;21042;47.620;12.188;2022-07-29T00:02:24;4.55;;;3.33;;
34828;SDS011;21042;47.620;12.188;2022-07-29T00:04:52;5.50;;;3.47;;
34828;SDS011;21042;47.620;12.188;2022-07-29T00:07:19;7.20;;;3.47;;
34828;SDS011;21042;47.620;12.188;2022-07-29T00:09:45;7.07;;;3.50;;
34828;SDS011;21042;47.620;12.188;2022-07-29T00:12:18;5.50;;;3.00;;
34828;SDS011;21042;47.620;12.188;2022-07-29T00:14:54;5.07;;;3.30;;
34828;SDS011;21042;47.620;12.188;2022-07-29T00:17:24;4.65;;;3.13;;
34828;SDS011;21042;47.620;12.188;2022-07-29T00:19:51;3.67;;;3.08;;
34828;SDS011;21042;47.620;12.188;2022-07-29T00:22:18;4.20;;;2.55;;
34828;SDS011;21042;47.620;12.188;2022-07-29T00:24:48;4.40;;;2.83;;
34828;SDS011;21042;47.620;12.188;2022-07-29T00:27:16;3.85;;;3.10;;
34828;SDS011;21042;47.620;12.188;2022-07-29T00:29:43;5.45;;;2.70;;
34828;SDS011;21042;47.620;12.188;2022-07-29T00:32:10;3.83;;;2.53;;
34828;SDS011;21042;47.620;12.188;2022-07-29T00:34:37;3.20;;;2.65;;
34828;SDS011;21042;47.620;12.188;2022-07-29T00:37:22;5.35;;;2.90;;
34828;SDS011;21042;47.620;12.188;2022-07-29T00:39:49;3.92;;;2.72;;
34828;SDS011;21042;47.620;12.188;2022-07-29T00:42:16;6.20;;;2.50;;
34828;SDS011;21042;47.620;12.188;2022-07-29T00:44:43;3.05;;;2.20;;
34828;SDS011;21042;47.620;12.188;2022-07-29T00:47:10;3.90;;;3.10;;
34828;SDS011;21042;47.620;12.188;2022-07-29T00:49:38;4.30;;;2.58;;
34828;SDS011;21042;47.620;12.188;2022-07-29T00:52:06;3.58;;;2.65;;
34828;SDS011;21042;47.620;12.188;2022-07-29T00:54:33;3.00;;;2.20;;
34828;SDS011;21042;47.620;12.188;2022-07-29T00:57:10;3.38;;;2.20;;
34828;SDS011;21042;47.620;12.188;2022-07-29T00:59:37;5.38;;;2.60;;
34828;SDS011;21042;47.620;12.188;2022-07-29T01:02:04;3.92;;;2.22;;
34828;SDS011;21042;47.620;12.188;2022-07-29T01:04:31;3.55;;;2.35;;
34828;SDS011;21042;47.620;12.188;2022-07-29T01:07:00;3.03;;;2.13;;
34828;SDS011;21042;47.620;12.188;2022-07-29T01:09:29;3.47;;;2.33;;
34828;SDS011;21042;47.620;12.188;2022-07-29T01:12:17;2.72;;;2.20;;
34828;SDS011;21042;47.620;12.188;2022-07-29T01:14:45;2.83;;;2.17;;
34828;SDS011;21042;47.620;12.188;2022-07-29T01:19:48;3.20;;;1.90;;
34828;SDS011;21042;47.620;12.188;2022-07-29T01:24:55;4.25;;;2.42;;
34828;SDS011;21042;47.620;12.188;2022-07-29T01:27:32;3.15;;;2.25;;
34828;SDS011;21042;47.620;12.188;2022-07-29T01:30:20;2.20;;;2.00;;
34828;SDS011;21042;47.620;12.188;2022-07-29T01:32:52;4.38;;;2.80;;
34828;SDS011;21042;47.620;12.188;2022-07-29T01:35:31;6.35;;;2.20;;
34828;SDS011;21042;47.620;12.188;2022-07-29T01:38:12;3.33;;;2.60;;
34828;SDS011;21042;47.620;12.188;2022-07-29T01:40:48;3.22;;;2.50;;
34828;SDS011;21042;47.620;12.188;2022-07-29T01:43:19;3.60;;;2.33;;
34828;SDS011;21042;47.620;12.188;2022-07-29T01:45:56;5.03;;;2.17;;
34828;SDS011;21042;47.620;12.188;2022-07-29T01:48:40;2.40;;;1.98;;
34828;SDS011;21042;47.620;12.188;2022-07-29T01:51:25;2.88;;;2.22;;
34828;SDS011;21042;47.620;12.188;2022-07-29T01:56:36;3.22;;;2.30;;
34828;SDS011;21042;47.620;12.188;2022-07-29T01:59:05;4.28;;;2.65;;
34828;SDS011;21042;47.620;12.188;2022-07-29T02:01:35;3.50;;;2.40;;
34828;SDS011;21042;47.620;12.188;2022-07-29T02:04:03;3.17;;;2.08;;
34828;SDS011;21042;47.620;12.188;2022-07-29T02:06:33;3.67;;;2.10;;
34828;SDS011;21042;47.620;12.188;2022-07-29T02:09:02;7.40;;;2.22;;
34828;SDS011;21042;47.620;12.188;2022-07-29T02:11:33;3.22;;;2.47;;
34828;SDS011;21042;47.620;12.188;2022-07-29T02:14:03;3.25;;;2.38;;
34828;SDS011;21042;47.620;12.188;2022-07-29T02:16:33;2.72;;;2.05;;
34828;SDS011;21042;47.620;12.188;2022-07-29T02:19:02;2.65;;;2.13;;
34828;SDS011;21042;47.620;12.188;2022-07-29T02:21:31;3.83;;;2.33;;
34828;SDS011;21042;47.620;12.188;2022-07-29T02:23:59;5.03;;;3.70;;
34828;SDS011;21042;47.620;12.188;2022-07-29T02:26:29;2.80;;;2.50;;
34828;SDS011;21042;47.620;12.188;2022-07-29T02:28:58;3.58;;;2.30;;
34828;SDS011;21042;47.620;12.188;2022-07-29T02:31:26;4.30;;;2.35;;
34828;SDS011;21042;47.620;12.188;2022-07-29T02:34:00;4.20;;;2.50;;
34828;SDS011;21042;47.620;12.188;2022-07-29T02:36:31;4.10;;;2.40;;
34828;SDS011;21042;47.620;12.188;2022-07-29T02:38:58;3.70;;;2.30;;
34828;SDS011;21042;47.620;12.188;2022-07-29T02:41:33;2.92;;;2.47;;
34828;SDS011;21042;47.620;12.188;2022-07-29T02:44:08;3.60;;;2.70;;
34828;SDS011;21042;47.620;12.188;2022-07-29T02:46:53;3.42;;;2.65;;
34828;SDS011;21042;47.620;12.188;2022-07-29T02:52:26;4.07;;;2.30;;
34828;SDS011;21042;47.620;12.188;2022-07-29T02:55:16;5.60;;;2.50;;
34828;SDS011;21042;47.620;12.188;2022-07-29T02:57:46;3.50;;;2.38;;
34828;SDS011;21042;47.620;12.188;2022-07-29T03:00:21;3.72;;;2.28;;
34828;SDS011;21042;47.620;12.188;2022-07-29T03:02:53;3.92;;;2.75;;
34828;SDS011;21042;47.620;12.188;2022-07-29T03:05:22;6.45;;;2.30;;
34828;SDS011;21042;47.620;12.188;2022-07-29T03:07:52;3.67;;;2.15;;
34828;SDS011;21042;47.620;12.188;2022-07-29T03:10:23;3.78;;;2.25;;
34828;SDS011;21042;47.620;12.188;2022-07-29T03:12:52;5.10;;;2.38;;
34828;SDS011;21042;47.620;12.188;2022-07-29T03:15:21;2.17;;;1.92;;
34828;SDS011;21042;47.620;12.188;2022-07-29T03:17:50;3.47;;;2.70;;
34828;SDS011;21042;47.620;12.188;2022-07-29T03:20:19;5.57;;;2.45;;
34828;SDS011;21042;47.620;12.188;2022-07-29T03:22:46;4.32;;;2.30;;
34828;SDS011;21042;47.620;12.188;2022-07-29T03:25:14;2.92;;;2.25;;
34828;SDS011;21042;47.620;12.188;2022-07-29T03:27:42;4.15;;;2.67;;
34828;SDS011;21042;47.620;12.188;2022-07-29T03:30:09;5.00;;;2.80;;
34828;SDS011;21042;47.620;12.188;2022-07-29T03:32:46;4.22;;;2.95;;
34828;SDS011;21042;47.620;12.188;2022-07-29T03:37:43;5.13;;;3.15;;
34828;SDS011;21042;47.620;12.188;2022-07-29T03:40:11;6.10;;;2.88;;
34828;SDS011;21042;47.620;12.188;2022-07-29T03:42:51;3.45;;;2.45;;
34828;SDS011;21042;47.620;12.188;2022-07-29T03:45:19;4.80;;;2.85;;
34828;SDS011;21042;47.620;12.188;2022-07-29T03:47:52;5.35;;;3.15;;
34828;SDS011;21042;47.620;12.188;2022-07-29T03:50:26;8.60;;;3.20;;
34828;SDS011;21042;47.620;12.188;2022-07-29T03:52:56;7.15;;;2.60;;
34828;SDS011;21042;47.620;12.188;2022-07-29T03:55:23;4.30;;;2.80;;
34828;SDS011;21042;47.620;12.188;2022-07-29T03:57:51;4.07;;;2.67;;
34828;SDS011;21042;47.620;12.188;2022-07-29T04:02:45;4.38;;;2.50;;
34828;SDS011;21042;47.620;12.188;2022-07-29T04:05:15;5.05;;;2.58;;
34828;SDS011;21042;47.620;12.188;2022-07-29T04:07:46;3.97;;;2.78;;
34828;SDS011;21042;47.620;12.188;2022-07-29T04:10:13;2.85;;;2.47;;
34828;SDS011;21042;47.620;12.188;2022-07-29T04:12:57;3.10;;;2.58;;
34828;SDS011;21042;47.620;12.188;2022-07-29T04:15:24;7.35;;;2.50;;
34828;SDS011;21042;47.620;12.188;2022-07-29T04:17:56;4.00;;;2.85;;
34828;SDS011;21042;47.620;12.188;2022-07-29T04:20:23;4.03;;;2.25;;
34828;SDS011;21042;47.620;12.188;2022-07-29T04:22:49;5.53;;;3.00;;
34828;SDS011;21042;47.620;12.188;2022-07-29T04:25:16;6.28;;;2.85;;
34828;SDS011;21042;47.620;12.188;2022-07-29T04:27:43;6.63;;;3.60;;
34828;SDS011;21042;47.620;12.188;2022-07-29T04:30:30;6.65;;;3.42;;
34828;SDS011;21042;47.620;12.188;2022-07-29T04:32:58;8.65;;;3.47;;
34828;SDS011;21042;47.620;12.188;2022-07-29T04:35:27;7.78;;;3.00;;
34828;SDS011;21042;47.620;12.188;2022-07-29T04:37:54;4.70;;;3.05;;
34828;SDS011;21042;47.620;12.188;2022-07-29T04:40:21;4.55;;;3.10;;
34828;SDS011;21042;47.620;12.188;2022-07-29T04:42:48;7.40;;;3.20;;
34828;SDS011;21042;47.620;12.188;2022-07-29T04:45:15;7.10;;;3.13;;
34828;SDS011;21042;47.620;12.188;2022-07-29T04:47:47;6.20;;;3.33;;
34828;SDS011;21042;47.620;12.188;2022-07-29T04:50:14;3.83;;;2.83;;
34828;SDS011;21042;47.620;12.188;2022-07-29T04:52:41;5.10;;;3.25;;
34828;SDS011;21042;47.620;12.188;2022-07-29T04:55:08;7.13;;;3.00;;
34828;SDS011;21042;47.620;12.188;2022-07-29T04:57:35;6.03;;;3.10;;
34828;SDS011;21042;47.620;12.188;2022-07-29T05:00:03;3.70;;;2.75;;
34828;SDS011;21042;47.620;12.188;2022-07-29T05:02:31;2.78;;;2.40;;
34828;SDS011;21042;47.620;12.188;2022-07-29T05:04:57;5.18;;;3.22;;
34828;SDS011;21042;47.620;12.188;2022-07-29T05:07:24;4.38;;;3.03;;
34828;SDS011;21042;47.620;12.188;2022-07-29T05:09:51;3.92;;;3.00;;
34828;SDS011;21042;47.620;12.188;2022-07-29T05:12:19;4.40;;;2.90;;
34828;SDS011;21042;47.620;12.188;2022-07-29T05:14:45;3.83;;;2.70;;
34828;SDS011;21042;47.620;12.188;2022-07-29T05:17:12;4.93;;;2.80;;
34828;SDS011;21042;47.620;12.188;2022-07-29T05:19:39;4.78;;;2.35;;
34828;SDS011;21042;47.620;12.188;2022-07-29T05:22:05;3.80;;;2.50;;
34828;SDS011;21042;47.620;12.188;2022-07-29T05:24:32;3.40;;;2.47;;
34828;SDS011;21042;47.620;12.188;2022-07-29T05:26:59;4.38;;;2.80;;
34828;SDS011;21042;47.620;12.188;2022-07-29T05:29:26;4.82;;;2.50;;
34828;SDS011;21042;47.620;12.188;2022-07-29T05:32:10;5.45;;;3.25;;
34828;SDS011;21042;47.620;12.188;2022-07-29T05:34:37;7.65;;;3.78;;
34828;SDS011;21042;47.620;12.188;2022-07-29T05:37:16;5.45;;;2.70;;
34828;SDS011;21042;47.620;12.188;2022-07-29T05:39:46;4.38;;;2.55;;
34828;SDS011;21042;47.620;12.188;2022-07-29T05:42:15;2.97;;;2.38;;
34828;SDS011;21042;47.620;12.188;2022-07-29T05:44:42;3.80;;;2.80;;
34828;SDS011;21042;47.620;12.188;2022-07-29T05:47:09;4.15;;;2.47;;
34828;SDS011;21042;47.620;12.188;2022-07-29T05:49:36;2.95;;;2.33;;
34828;SDS011;21042;47.620;12.188;2022-07-29T05:52:03;4.05;;;2.85;;
34828;SDS011;21042;47.620;12.188;2022-07-29T05:54:30;3.17;;;2.15;;
34828;SDS011;21042;47.620;12.188;2022-07-29T05:56:56;5.75;;;2.97;;
34828;SDS011;21042;47.620;12.188;2022-07-29T05:59:23;6.75;;;2.53;;
34828;SDS011;21042;47.620;12.188;2022-07-29T06:01:55;3.45;;;2.60;;
34828;SDS011;21042;47.620;12.188;2022-07-29T06:04:23;4.82;;;2.28;;
34828;SDS011;21042;47.620;12.188;2022-07-29T06:06:50;5.60;;;2.58;;
34828;SDS011;21042;47.620;12.188;2022-07-29T06:09:17;3.33;;;2.50;;
34828;SDS011;21042;47.620;12.188;2022-07-29T06:11:43;3.20;;;2.60;;
34828;SDS011;21042;47.620;12.188;2022-07-29T06:14:10;3.78;;;2.28;;
34828;SDS011;21042;47.620;12.188;2022-07-29T06:16:37;6.82;;;2.72;;
34828;SDS011;21042;47.620;12.188;2022-07-29T06:19:04;5.72;;;2.53;;
34828;SDS011;21042;47.620;12.188;2022-07-29T06:21:31;3.25;;;2.20;;
34828;SDS011;21042;47.620;12.188;2022-07-29T06:23:57;3.65;;;2.47;;
34828;SDS011;21042;47.620;12.188;2022-07-29T06:26:26;3.53;;;2.20;;
34828;SDS011;21042;47.620;12.188;2022-07-29T06:28:57;3.88;;;2.33;;
34828;SDS011;21042;47.620;12.188;2022-07-29T06:31:23;2.83;;;2.20;;
34828;SDS011;21042;47.620;12.188;2022-07-29T06:33:50;2.85;;;2.40;;
34828;SDS011;21042;47.620;12.188;2022-07-29T06:36:20;3.67;;;2.03;;
34828;SDS011;21042;47.620;12.188;2022-07-29T06:38:49;4.68;;;2.40;;
34828;SDS011;21042;47.620;12.188;2022-07-29T06:41:17;5.55;;;2.22;;
34828;SDS011;21042;47.620;12.188;2022-07-29T06:43:44;2.28;;;1.80;;
34828;SDS011;21042;47.620;12.188;2022-07-29T06:46:19;9.13;;;2.67;;
34828;SDS011;21042;47.620;12.188;2022-07-29T06:48:47;3.17;;;2.08;;
34828;SDS011;21042;47.620;12.188;2022-07-29T06:51:14;5.90;;;2.35;;
34828;SDS011;21042;47.620;12.188;2022-07-29T06:53:48;2.67;;;1.90;;
34828;SDS011;21042;47.620;12.188;2022-07-29T06:56:28;3.63;;;2.55;;
34828;SDS011;21042;47.620;12.188;2022-07-29T06:59:05;6.70;;;2.38;;
34828;SDS011;21042;47.620;12.188;2022-07-29T07:01:35;5.03;;;2.20;;
34828;SDS011;21042;47.620;12.188;2022-07-29T07:04:03;3.67;;;2.00;;
34828;SDS011;21042;47.620;12.188;2022-07-29T07:06:30;4.25;;;2.33;;
34828;SDS011;21042;47.620;12.188;2022-07-29T07:08:56;3.80;;;2.25;;
34828;SDS011;21042;47.620;12.188;2022-07-29T07:11:23;2.47;;;2.28;;
34828;SDS011;21042;47.620;12.188;2022-07-29T07:13:50;2.53;;;1.98;;
34828;SDS011;21042;47.620;12.188;2022-07-29T07:16:17;4.28;;;2.10;;
34828;SDS011;21042;47.620;12.188;2022-07-29T07:18:44;3.50;;;2.20;;
34828;SDS011;21042;47.620;12.188;2022-07-29T07:21:11;3.67;;;2.20;;
34828;SDS011;21042;47.620;12.188;2022-07-29T07:23:44;3.22;;;2.13;;
34828;SDS011;21042;47.620;12.188;2022-07-29T07:26:12;3.13;;;2.08;;
34828;SDS011;21042;47.620;12.188;2022-07-29T07:28:38;4.10;;;2.00;;
34828;SDS011;21042;47.620;12.188;2022-07-29T07:31:05;2.17;;;1.75;;
34828;SDS011;21042;47.620;12.188;2022-07-29T07:33:32;2.47;;;1.95;;
34828;SDS011;21042;47.620;12.188;2022-07-29T07:35:59;2.85;;;2.17;;
34828;SDS011;21042;47.620;12.188;2022-07-29T07:38:25;6.10;;;1.85;;
34828;SDS011;21042;47.620;12.188;2022-07-29T07:40:52;5.50;;;2.13;;
34828;SDS011;21042;47.620;12.188;2022-07-29T07:43:19;2.70;;;2.00;;
34828;SDS011;21042;47.620;12.188;2022-07-29T07:45:46;2.65;;;2.30;;
34828;SDS011;21042;47.620;12.188;2022-07-29T07:48:12;6.93;;;2.25;;
34828;SDS011;21042;47.620;12.188;2022-07-29T07:50:39;2.83;;;2.53;;
34828;SDS011;21042;47.620;12.188;2022-07-29T07:53:06;3.50;;;2.17;;
34828;SDS011;21042;47.620;12.188;2022-07-29T07:55:33;2.80;;;2.25;;
34828;SDS011;21042;47.620;12.188;2022-07-29T07:58:19;3.08;;;2.20;;
34828;SDS011;21042;47.620;12.188;2022-07-29T08:00:46;2.63;;;2.08;;
34828;SDS011;21042;47.620;12.188;2022-07-29T08:03:13;2.67;;;2.10;;
34828;SDS011;21042;47.620;12.188;2022-07-29T08:05:42;4.35;;;2.20;;
34828;SDS011;21042;47.620;12.188;2022-07-29T08:08:09;4.70;;;1.85;;
34828;SDS011;21042;47.620;12.188;2022-07-29T08:10:36;4.63;;;2.03;;
34828;SDS011;21042;47.620;12.188;2022-07-29T08:13:18;2.70;;;1.90;;
34828;SDS011;21042;47.620;12.188;2022-07-29T08:15:47;2.28;;;1.70;;
34828;SDS011;21042;47.620;12.188;2022-07-29T08:18:23;3.28;;;1.83;;
34828;SDS011;21042;47.620;12.188;2022-07-29T08:20:50;2.25;;;1.98;;
34828;SDS011;21042;47.620;12.188;2022-07-29T08:23:17;3.20;;;1.92;;
34828;SDS011;21042;47.620;12.188;2022-07-29T08:25:45;2.58;;;1.98;;
34828;SDS011;21042;47.620;12.188;2022-07-29T08:28:15;2.33;;;2.03;;
34828;SDS011;21042;47.620;12.188;2022-07-29T08:30:42;2.33;;;1.92;;
34828;SDS011;21042;47.620;12.188;2022-07-29T08:33:09;1.98;;;1.88;;
34828;SDS011;21042;47.620;12.188;2022-07-29T08:35:36;4.03;;;2.10;;
34828;SDS011;21042;47.620;12.188;2022-07-29T08:38:05;3.97;;;1.90;;
34828;SDS011;21042;47.620;12.188;2022-07-29T08:40:32;2.33;;;1.90;;
34828;SDS011;21042;47.620;12.188;2022-07-29T08:43:03;4.85;;;1.98;;
34828;SDS011;21042;47.620;12.188;2022-07-29T08:45:37;6.80;;;2.45;;
34828;SDS011;21042;47.620;12.188;2022-07-29T08:48:13;2.00;;;1.67;;
34828;SDS011;21042;47.620;12.188;2022-07-29T08:50:42;2.50;;;2.10;;
34828;SDS011;21042;47.620;12.188;2022-07-29T08:53:13;3.45;;;2.08;;
34828;SDS011;21042;47.620;12.188;2022-07-29T08:55:42;3.80;;;2.17;;
34828;SDS011;21042;47.620;12.188;2022-07-29T08:58:10;2.15;;;1.95;;
34828;SDS011;21042;47.620;12.188;2022-07-29T09:00:41;2.40;;;1.73;;
34828;SDS011;21042;47.620;12.188;2022-07-29T09:03:18;3.10;;;1.92;;
34828;SDS011;21042;47.620;12.188;2022-07-29T09:05:46;2.10;;;1.60;;
34828;SDS011;21042;47.620;12.188;2022-07-29T09:08:14;2.13;;;1.50;;
34828;SDS011;21042;47.620;12.188;2022-07-29T09:10:42;2.97;;;1.63;;
34828;SDS011;21042;47.620;12.188;2022-07-29T09:13:10;2.47;;;1.70;;
34828;SDS011;21042;47.620;12.188;2022-07-29T09:15:37;2.40;;;2.20;;
34828;SDS011;21042;47.620;12.188;2022-07-29T09:18:04;4.57;;;1.80;;
34828;SDS011;21042;47.620;12.188;2022-07-29T09:20:30;2.63;;;2.38;;
34828;SDS011;21042;47.620;12.188;2022-07-29T09:23:16;2.50;;;2.13;;
34828;SDS011;21042;47.620;12.188;2022-07-29T09:25:50;3.58;;;2.08;;
34828;SDS011;21042;47.620;12.188;2022-07-29T09:30:53;3.40;;;2.20;;
34828;SDS011;21042;47.620;12.188;2022-07-29T09:33:22;5.25;;;2.10;;
34828;SDS011;21042;47.620;12.188;2022-07-29T09:35:59;2.20;;;1.88;;
34828;SDS011;21042;47.620;12.188;2022-07-29T09:38:31;3.08;;;1.92;;
34828;SDS011;21042;47.620;12.188;2022-07-29T09:41:00;2.83;;;2.03;;
34828;SDS011;21042;47.620;12.188;2022-07-29T09:43:32;2.50;;;2.10;;
34828;SDS011;21042;47.620;12.188;2022-07-29T09:46:12;1.92;;;1.80;;
34828;SDS011;21042;47.620;12.188;2022-07-29T09:48:39;2.08;;;1.80;;
34828;SDS011;21042;47.620;12.188;2022-07-29T09:51:16;2.38;;;2.10;;
34828;SDS011;21042;47.620;12.188;2022-07-29T09:53:48;5.28;;;2.30;;
34828;SDS011;21042;47.620;12.188;2022-07-29T09:56:18;2.08;;;1.88;;
34828;SDS011;21042;47.620;12.188;2022-07-29T09:58:44;6.43;;;2.42;;
34828;SDS011;21042;47.620;12.188;2022-07-29T10:01:11;2.85;;;1.88;;
34828;SDS011;21042;47.620;12.188;2022-07-29T10:03:51;2.65;;;2.03;;
34828;SDS011;21042;47.620;12.188;2022-07-29T10:06:18;4.22;;;2.05;;
34828;SDS011;21042;47.620;12.188;2022-07-29T10:08:45;4.80;;;1.85;;
34828;SDS011;21042;47.620;12.188;2022-07-29T10:11:13;3.35;;;2.30;;
34828;SDS011;21042;47.620;12.188;2022-07-29T10:13:42;2.33;;;1.70;;
34828;SDS011;21042;47.620;12.188;2022-07-29T10:16:11;1.88;;;1.70;;
34828;SDS011;21042;47.620;12.188;2022-07-29T10:18:39;2.60;;;1.70;;
34828;SDS011;21042;47.620;12.188;2022-07-29T10:21:09;5.18;;;1.90;;
34828;SDS011;21042;47.620;12.188;2022-07-29T10:23:56;2.70;;;2.00;;
34828;SDS011;21042;47.620;12.188;2022-07-29T10:26:26;3.20;;;1.90;;
34828;SDS011;21042;47.620;12.188;2022-07-29T10:28:53;2.45;;;1.90;;
34828;SDS011;21042;47.620;12.188;2022-07-29T10:31:24;1.95;;;1.80;;
34828;SDS011;21042;47.620;12.188;2022-07-29T10:34:13;2.65;;;2.10;;
34828;SDS011;21042;47.620;12.188;2022-07-29T10:37:19;2.28;;;1.85;;
34828;SDS011;21042;47.620;12.188;2022-07-29T10:40:11;5.43;;;1.92;;
34828;SDS011;21042;47.620;12.188;2022-07-29T10:43:28;2.33;;;1.90;;
34828;SDS011;21042;47.620;12.188;2022-07-29T10:45:59;3.55;;;2.10;;
34828;SDS011;21042;47.620;12.188;2022-07-29T10:48:26;2.10;;;1.90;;
34828;SDS011;21042;47.620;12.188;2022-07-29T10:53:22;2.40;;;1.92;;
34828;SDS011;21042;47.620;12.188;2022-07-29T10:55:51;2.45;;;1.83;;
34828;SDS011;21042;47.620;12.188;2022-07-29T10:58:22;3.53;;;2.00;;
34828;SDS011;21042;47.620;12.188;2022-07-29T11:00:50;2.78;;;1.88;;
34828;SDS011;21042;47.620;12.188;2022-07-29T11:06:04;2.75;;;1.85;;
34828;SDS011;21042;47.620;12.188;2022-07-29T11:08:33;3.60;;;1.70;;
34828;SDS011;21042;47.620;12.188;2022-07-29T11:13:48;1.63;;;1.45;;
34828;SDS011;21042;47.620;12.188;2022-07-29T11:16:20;2.97;;;1.65;;
34828;SDS011;21042;47.620;12.188;2022-07-29T11:21:39;3.25;;;1.60;;
34828;SDS011;21042;47.620;12.188;2022-07-29T11:24:28;2.42;;;1.45;;
34828;SDS011;21042;47.620;12.188;2022-07-29T11:29:55;2.05;;;1.70;;
34828;SDS011;21042;47.620;12.188;2022-07-29T11:32:35;3.03;;;1.92;;
34828;SDS011;21042;47.620;12.188;2022-07-29T11:38:23;3.38;;;1.70;;
34828;SDS011;21042;47.620;12.188;2022-07-29T11:43:51;2.08;;;1.58;;
34828;SDS011;21042;47.620;12.188;2022-07-29T11:49:13;2.72;;;1.85;;
34828;SDS011;21042;47.620;12.188;2022-07-29T11:51:58;2.45;;;1.80;;
34828;SDS011;21042;47.620;12.188;2022-07-29T11:54:32;3.30;;;1.80;;
34828;SDS011;21042;47.620;12.188;2022-07-29T11:57:20;1.98;;;1.77;;
34828;SDS011;21042;47.620;12.188;2022-07-29T11:59:47;2.35;;;1.98;;
34828;SDS011;21042;47.620;12.188;2022-07-29T12:02:16;3.13;;;1.80;;
34828;SDS011;21042;47.620;12.188;2022-07-29T12:05:03;1.58;;;1.40;;
34828;SDS011;21042;47.620;12.188;2022-07-29T12:07:36;3.65;;;1.70;;
34828;SDS011;21042;47.620;12.188;2022-07-29T12:10:06;4.38;;;2.20;;
34828;SDS011;21042;47.620;12.188;2022-07-29T12:12:50;2.40;;;2.17;;
34828;SDS011;21042;47.620;12.188;2022-07-29T12:15:18;5.13;;;1.90;;
34828;SDS011;21042;47.620;12.188;2022-07-29T12:17:47;1.63;;;1.45;;
34828;SDS011;21042;47.620;12.188;2022-07-29T12:20:24;1.83;;;1.58;;
34828;SDS011;21042;47.620;12.188;2022-07-29T12:22:53;2.13;;;1.80;;
34828;SDS011;21042;47.620;12.188;2022-07-29T12:25:22;4.07;;;1.90;;
34828;SDS011;21042;47.620;12.188;2022-07-29T12:28:00;9.18;;;2.08;;
34828;SDS011;21042;47.620;12.188;2022-07-29T12:30:38;1.70;;;1.50;;
34828;SDS011;21042;47.620;12.188;2022-07-29T12:33:13;2.15;;;1.98;;
34828;SDS011;21042;47.620;12.188;2022-07-29T12:35:52;5.80;;;1.85;;
34828;SDS011;21042;47.620;12.188;2022-07-29T12:38:32;2.30;;;2.10;;
34828;SDS011;21042;47.620;12.188;2022-07-29T12:41:02;2.08;;;1.88;;
34828;SDS011;21042;47.620;12.188;2022-07-29T12:43:30;2.08;;;1.88;;
34828;SDS011;21042;47.620;12.188;2022-07-29T12:45:57;2.10;;;1.90;;
34828;SDS011;21042;47.620;12.188;2022-07-29T12:48:38;2.80;;;1.90;;
34828;SDS011;21042;47.620;12.188;2022-07-29T12:51:06;2.63;;;1.70;;
34828;SDS011;21042;47.620;12.188;2022-07-29T12:53:35;2.45;;;1.90;;
34828;SDS011;21042;47.620;12.188;2022-07-29T12:56:02;4.60;;;1.90;;
34828;SDS011;21042;47.620;12.188;2022-07-29T12:58:50;6.32;;;2.13;;
34828;SDS011;21042;47.620;12.188;2022-07-29T13:01:18;2.38;;;2.03;;
34828;SDS011;21042;47.620;12.188;2022-07-29T13:06:30;5.38;;;2.35;;
34828;SDS011;21042;47.620;12.188;2022-07-29T13:08:59;2.97;;;2.17;;
34828;SDS011;21042;47.620;12.188;2022-07-29T13:11:51;2.42;;;2.22;;
34828;SDS011;21042;47.620;12.188;2022-07-29T13:14:31;3.67;;;1.90;;
34828;SDS011;21042;47.620;12.188;2022-07-29T13:17:17;3.55;;;2.53;;
34828;SDS011;21042;47.620;12.188;2022-07-29T13:20:05;3.55;;;2.22;;
34828;SDS011;21042;47.620;12.188;2022-07-29T13:22:35;13.82;;;2.47;;
34828;SDS011;21042;47.620;12.188;2022-07-29T13:25:02;2.25;;;2.05;;
34828;SDS011;21042;47.620;12.188;2022-07-29T13:27:30;3.13;;;2.40;;
34828;SDS011;21042;47.620;12.188;2022-07-29T13:29:59;5.20;;;2.30;;
34828;SDS011;21042;47.620;12.188;2022-07-29T13:32:28;3.88;;;2.75;;
34828;SDS011;21042;47.620;12.188;2022-07-29T13:34:56;4.30;;;2.20;;
34828;SDS011;21042;47.620;12.188;2022-07-29T13:37:23;4.40;;;2.50;;
34828;SDS011;21042;47.620;12.188;2022-07-29T13:42:18;3.20;;;2.15;;
34828;SDS011;21042;47.620;12.188;2022-07-29T13:44:45;3.88;;;2.97;;
34828;SDS011;21042;47.620;12.188;2022-07-29T13:47:14;4.72;;;2.45;;
34828;SDS011;21042;47.620;12.188;2022-07-29T13:49:42;2.60;;;2.40;;
34828;SDS011;21042;47.620;12.188;2022-07-29T13:52:09;3.17;;;2.42;;
34828;SDS011;21042;47.620;12.188;2022-07-29T13:57:07;6.60;;;3.30;;
34828;SDS011;21042;47.620;12.188;2022-07-29T13:59:36;4.05;;;2.40;;
34828;SDS011;21042;47.620;12.188;2022-07-29T14:02:03;11.48;;;3.00;;
34828;SDS011;21042;47.620;12.188;2022-07-29T14:04:31;4.68;;;3.00;;
34828;SDS011;21042;47.620;12.188;2022-07-29T14:06:58;2.75;;;2.42;;
34828;SDS011;21042;47.620;12.188;2022-07-29T14:09:29;3.38;;;2.35;;
34828;SDS011;21042;47.620;12.188;2022-07-29T14:12:06;3.22;;;2.72;;
34828;SDS011;21042;47.620;12.188;2022-07-29T14:14:33;6.95;;;2.95;;
34828;SDS011;21042;47.620;12.188;2022-07-29T14:17:01;2.80;;;2.58;;
34828;SDS011;21042;47.620;12.188;2022-07-29T14:19:29;4.43;;;2.53;;
34828;SDS011;21042;47.620;12.188;2022-07-29T14:21:58;4.68;;;2.60;;
34828;SDS011;21042;47.620;12.188;2022-07-29T14:24:28;3.30;;;2.80;;
34828;SDS011;21042;47.620;12.188;2022-07-29T14:26:55;4.13;;;2.63;;
34828;SDS011;21042;47.620;12.188;2022-07-29T14:29:22;5.60;;;2.80;;
34828;SDS011;21042;47.620;12.188;2022-07-29T14:32:03;5.25;;;2.53;;
34828;SDS011;21042;47.620;12.188;2022-07-29T14:34:34;7.32;;;2.70;;
34828;SDS011;21042;47.620;12.188;2022-07-29T14:37:02;2.80;;;2.53;;
34828;SDS011;21042;47.620;12.188;2022-07-29T14:39:31;6.00;;;2.65;;
34828;SDS011;21042;47.620;12.188;2022-07-29T14:42:02;4.72;;;3.00;;
34828;SDS011;21042;47.620;12.188;2022-07-29T14:44:29;4.32;;;2.60;;
34828;SDS011;21042;47.620;12.188;2022-07-29T14:46:58;4.28;;;3.00;;
34828;SDS011;21042;47.620;12.188;2022-07-29T14:49:26;4.05;;;2.60;;
34828;SDS011;21042;47.620;12.188;2022-07-29T14:51:53;4.38;;;2.80;;
34828;SDS011;21042;47.620;12.188;2022-07-29T14:54:20;5.53;;;2.85;;
34828;SDS011;21042;47.620;12.188;2022-07-29T14:59:15;7.03;;;2.65;;
34828;SDS011;21042;47.620;12.188;2022-07-29T15:01:42;3.28;;;2.97;;
34828;SDS011;21042;47.620;12.188;2022-07-29T15:04:09;3.92;;;2.83;;
34828;SDS011;21042;47.620;12.188;2022-07-29T15:06:36;4.80;;;2.95;;
34828;SDS011;21042;47.620;12.188;2022-07-29T15:09:03;3.25;;;2.70;;
34828;SDS011;21042;47.620;12.188;2022-07-29T15:14:03;4.15;;;2.72;;
34828;SDS011;21042;47.620;12.188;2022-07-29T15:16:30;2.88;;;2.53;;
34828;SDS011;21042;47.620;12.188;2022-07-29T15:18:57;4.60;;;3.22;;
34828;SDS011;21042;47.620;12.188;2022-07-29T15:21:26;4.03;;;2.72;;
34828;SDS011;21042;47.620;12.188;2022-07-29T15:23:53;5.70;;;2.53;;
34828;SDS011;21042;47.620;12.188;2022-07-29T15:26:20;3.60;;;2.70;;
34828;SDS011;21042;47.620;12.188;2022-07-29T15:28:47;4.70;;;2.63;;
34828;SDS011;21042;47.620;12.188;2022-07-29T15:31:14;3.00;;;2.70;;
34828;SDS011;21042;47.620;12.188;2022-07-29T15:36:07;3.95;;;2.88;;
34828;SDS011;21042;47.620;12.188;2022-07-29T15:41:07;2.95;;;2.35;;
34828;SDS011;21042;47.620;12.188;2022-07-29T15:46:03;2.78;;;2.20;;
34828;SDS011;21042;47.620;12.188;2022-07-29T15:48:49;7.38;;;2.35;;
34828;SDS011;21042;47.620;12.188;2022-07-29T15:51:15;3.28;;;2.70;;
34828;SDS011;21042;47.620;12.188;2022-07-29T15:53:42;3.95;;;2.78;;
34828;SDS011;21042;47.620;12.188;2022-07-29T15:56:18;4.63;;;2.40;;